Time;durP1;ratioP1;P1;durP2;ratioP2;P2;SDS_P1;SDS_P2;PMS_P1;PMS_P2;Temp;Humidity;BMP_temperature;BMP_pressure;BME280_temperature;BME280_humidity;BME280_pressure;Samples;Min_cycle;Max_cycle;Signal;HPM_P1;HPM_P2
2022/09/22 00:01:49;;;;;;;4.93;1.75;;;;;;;7.84;100.00;102308.03;6227342;28;20046;-73
2022/09/22 00:04:51;;;;;;;1.40;1.15;;;;;;;7.80;100.00;102308.13;6226356;28;20053;-73
2022/09/22 00:07:53;;;;;;;2.88;1.48;;;;;;;7.78;100.00;102305.53;6226885;28;20093;-73
2022/09/22 00:11:03;;;;;;;2.63;1.52;;;;;;;7.77;100.00;102310.81;6226044;28;20409;-74
2022/09/22 00:14:07;;;;;;;1.77;1.42;;;;;;;7.75;100.00;102304.72;6225851;28;20061;-73
2022/09/22 00:17:11;;;;;;;2.75;1.17;;;;;;;7.74;100.00;102309.09;6226711;28;20060;-74
2022/09/22 00:20:13;;;;;;;1.23;1.02;;;;;;;7.67;100.00;102302.22;6225876;28;20053;-74
2022/09/22 00:23:15;;;;;;;3.60;1.73;;;;;;;7.65;100.00;102297.91;6226228;28;20488;-74
2022/09/22 00:26:20;;;;;;;2.25;1.08;;;;;;;7.57;100.00;102298.88;6225733;28;20060;-73
2022/09/22 00:29:22;;;;;;;2.65;1.35;;;;;;;7.53;100.00;102296.34;6226349;28;20108;-75
2022/09/22 00:32:24;;;;;;;1.42;0.90;;;;;;;7.47;100.00;102301.69;6225639;28;20050;-74
2022/09/22 00:35:26;;;;;;;1.60;1.00;;;;;;;7.41;100.00;102302.66;6225536;28;20501;-74
2022/09/22 00:38:28;;;;;;;2.13;1.13;;;;;;;7.38;100.00;102298.31;6225868;28;20061;-75
2022/09/22 00:41:32;;;;;;;2.80;1.17;;;;;;;7.41;100.00;102291.31;6225745;28;20054;-73
2022/09/22 00:44:37;;;;;;;3.53;1.10;;;;;;;7.44;100.00;102289.50;6225311;28;20058;-73
2022/09/22 00:47:43;;;;;;;3.10;1.42;;;;;;;7.47;100.00;102292.09;6225617;28;20425;-73
2022/09/22 00:50:46;;;;;;;2.25;1.15;;;;;;;7.41;100.00;102294.81;6225445;28;20516;-74
2022/09/22 00:53:48;;;;;;;3.20;1.25;;;;;;;7.36;100.00;102296.63;6225752;28;20046;-74
2022/09/22 00:56:55;;;;;;;1.23;1.13;;;;;;;7.32;100.00;102293.19;6226165;28;20675;-74
2022/09/22 00:59:57;;;;;;;1.52;0.88;;;;;;;7.30;100.00;102284.47;6225250;28;20433;-74
2022/09/22 01:03:02;;;;;;;2.15;1.30;;;;;;;7.30;100.00;102287.09;6225655;28;20053;-74
2022/09/22 01:06:08;;;;;;;2.03;1.52;;;;;;;7.24;100.00;102287.19;6223551;28;20054;-74
2022/09/22 01:09:10;;;;;;;3.40;1.38;;;;;;;7.24;100.00;102281.97;6225366;28;20049;-74
2022/09/22 01:12:11;;;;;;;3.22;1.50;;;;;;;7.18;100.00;102283.81;6224677;28;20464;-74
2022/09/22 01:15:26;;;;;;;1.52;1.00;;;;;;;7.17;100.00;102280.31;6224672;28;20050;-74
2022/09/22 01:18:39;;;;;;;3.70;1.67;;;;;;;7.15;100.00;102279.50;6225144;28;20061;-73
2022/09/22 01:21:50;;;;;;;2.03;1.10;;;;;;;7.18;100.00;102279.47;6224664;28;20485;-74
2022/09/22 01:25:15;;;;;;;3.65;1.55;;;;;;;7.15;100.00;102273.41;6224519;28;20056;-74
2022/09/22 01:28:35;;;;;;;2.00;1.17;;;;;;;7.13;100.00;102276.03;6224751;28;20057;-73
2022/09/22 01:31:41;;;;;;;1.83;1.08;;;;;;;7.11;100.00;102278.66;6224503;28;20045;-75
2022/09/22 01:34:49;;;;;;;1.55;1.25;;;;;;;7.08;100.00;102268.25;6224077;28;20053;-73
2022/09/22 01:38:02;;;;;;;4.72;1.20;;;;;;;7.08;100.00;102273.47;6224737;28;20536;-74
2022/09/22 01:41:08;;;;;;;1.55;1.15;;;;;;;7.06;100.00;102263.94;6224145;28;20468;-75
2022/09/22 01:44:15;;;;;;;2.38;1.45;;;;;;;7.05;100.00;102265.69;6224124;28;20104;-74
2022/09/22 01:47:22;;;;;;;1.77;1.00;;;;;;;7.03;100.00;102262.22;6224503;28;20086;-74
2022/09/22 01:50:27;;;;;;;1.85;1.27;;;;;;;6.95;100.00;102256.25;6224483;28;20050;-75
2022/09/22 01:53:33;;;;;;;3.22;1.55;;;;;;;6.92;100.00;102265.88;6224474;28;20065;-73
2022/09/22 01:56:37;;;;;;;5.85;1.75;;;;;;;6.86;100.00;102253.78;6223840;28;20050;-74
2022/09/22 01:59:41;;;;;;;2.72;1.50;;;;;;;6.91;100.00;102256.31;6223786;28;20061;-74
2022/09/22 02:02:51;;;;;;;2.70;1.00;;;;;;;6.92;100.00;102258.03;6224111;28;20486;-73
2022/09/22 02:06:00;;;;;;;3.47;1.40;;;;;;;6.91;100.00;102248.47;6223387;28;20061;-75
2022/09/22 02:09:03;;;;;;;;;;;;;;;6.86;100.00;102249.41;6224607;28;20107;-76
2022/09/22 02:12:05;;;;;;;7.63;1.90;;;;;;;6.83;100.00;102251.19;6223385;28;19922;-74
2022/09/22 02:15:58;;;;;;;1.52;1.05;;;;;;;6.82;100.00;102242.50;6223575;28;20050;-75
2022/09/22 02:18:35;;;;;;;7.43;1.35;;;;;;;6.83;100.00;102251.19;6223073;28;20057;-74
2022/09/22 02:21:38;;;;;;;1.48;1.13;;;;;;;6.83;100.00;102241.59;6223436;28;20046;-75
2022/09/22 02:24:42;;;;;;;4.45;1.45;;;;;;;6.86;100.00;102238.97;6223078;28;20073;-74
2022/09/22 02:27:46;;;;;;;1.45;1.17;;;;;;;6.90;100.00;102242.38;6223483;28;20057;-75
2022/09/22 02:30:51;;;;;;;1.75;1.30;;;;;;;6.90;100.00;102254.56;6223058;28;20520;-74
2022/09/22 02:33:55;;;;;;;4.47;1.80;;;;;;;6.93;100.00;102249.31;6222850;28;20053;-74
2022/09/22 02:37:06;;;;;;;1.85;1.13;;;;;;;6.94;100.00;102251.03;6223267;28;20053;-73
2022/09/22 02:40:14;;;;;;;3.65;1.70;;;;;;;6.96;100.00;102244.91;6222988;28;20062;-75
2022/09/22 02:43:24;;;;;;;5.70;1.42;;;;;;;6.94;100.00;102237.97;6223092;28;20080;-74
2022/09/22 02:46:31;;;;;;;2.13;1.20;;;;;;;6.97;100.00;102240.53;6219441;28;20092;-74
2022/09/22 02:49:35;;;;;;;2.88;1.40;;;;;;;6.94;100.00;102231.00;6222908;28;20048;-74
2022/09/22 02:52:37;;;;;;;6.03;1.23;;;;;;;6.96;100.00;102234.47;6222723;28;20073;-73
2022/09/22 02:55:40;;;;;;;2.83;1.63;;;;;;;6.93;100.00;102229.25;6222389;28;20049;-74
2022/09/22 02:58:41;;;;;;;1.60;1.20;;;;;;;6.91;100.00;102230.19;6223137;28;20083;-75
2022/09/22 03:01:42;;;;;;;1.98;1.00;;;;;;;6.92;100.00;102224.06;6222559;28;20054;-75
2022/09/22 03:04:45;;;;;;;1.85;1.33;;;;;;;6.89;100.00;102208.44;6222281;28;20054;-75
2022/09/22 03:07:46;;;;;;;4.03;1.30;;;;;;;6.90;100.00;102218.00;6222767;28;20413;-75
2022/09/22 03:10:48;;;;;;;1.23;1.13;;;;;;;6.89;100.00;102214.50;6222288;28;20049;-74
2022/09/22 03:13:49;;;;;;;2.45;1.30;;;;;;;6.87;100.00;102224.13;6222301;28;20060;-74
2022/09/22 03:16:50;;;;;;;1.90;1.35;;;;;;;6.84;100.00;102211.97;6222663;28;20056;-75
2022/09/22 03:19:53;;;;;;;4.85;1.42;;;;;;;6.78;100.00;102209.44;6222280;28;20134;-74
2022/09/22 03:22:54;;;;;;;2.13;1.08;;;;;;;6.74;100.00;102213.00;6222420;28;20556;-73
2022/09/22 03:25:56;;;;;;;2.22;1.60;;;;;;;6.68;100.00;102209.63;6221943;28;20053;-74
2022/09/22 03:28:57;;;;;;;2.20;1.23;;;;;;;6.66;100.00;102208.75;6221815;28;20046;-74
2022/09/22 03:31:59;;;;;;;3.42;1.10;;;;;;;6.63;100.00;102207.03;6222133;28;20613;-74
2022/09/22 03:35:01;;;;;;;1.75;1.27;;;;;;;6.60;100.00;102202.72;6222205;28;20457;-74
2022/09/22 03:38:03;;;;;;;1.95;1.20;;;;;;;6.55;100.00;102207.16;6222175;28;20049;-74
2022/09/22 03:41:05;;;;;;;1.58;1.08;;;;;;;6.54;100.00;102201.94;6221697;28;20050;-74
2022/09/22 03:44:06;;;;;;;1.85;1.13;;;;;;;6.53;100.00;102197.59;6221386;28;20046;-74
2022/09/22 03:47:08;;;;;;;1.50;1.38;;;;;;;6.53;100.00;102205.44;6222023;28;20409;-74
2022/09/22 03:50:10;;;;;;;2.92;1.20;;;;;;;6.51;100.00;102200.25;6221706;28;20053;-74
2022/09/22 03:53:12;;;;;;;2.10;1.13;;;;;;;6.50;100.00;102203.75;6222116;28;20060;-74
2022/09/22 03:56:15;;;;;;;0.77;0.77;;;;;;;6.45;100.00;102199.44;6221694;28;20497;-74
2022/09/22 03:59:17;;;;;;;2.88;1.38;;;;;;;6.42;100.00;102202.97;6221900;28;20058;-74
2022/09/22 04:02:18;;;;;;;2.42;1.08;;;;;;;6.41;100.00;102208.22;6221722;28;20058;-74
2022/09/22 04:05:21;;;;;;;1.67;1.15;;;;;;;6.32;100.00;102191.78;6221408;28;20050;-73
2022/09/22 04:08:23;;;;;;;2.67;1.10;;;;;;;6.28;100.00;102195.31;6221796;28;20456;-74
2022/09/22 04:11:24;;;;;;;2.97;0.88;;;;;;;6.24;100.00;102201.44;6221430;28;20042;-74
2022/09/22 04:14:26;;;;;;;1.05;0.90;;;;;;;6.20;100.00;102191.91;6221432;28;20050;-74
2022/09/22 04:17:27;;;;;;;2.15;0.82;;;;;;;6.20;100.00;102191.91;6221715;28;20410;-74
2022/09/22 04:20:30;;;;;;;2.15;0.98;;;;;;;6.21;100.00;102195.41;6221970;28;20046;-75
2022/09/22 04:23:31;;;;;;;2.70;1.58;;;;;;;6.23;100.00;102196.25;6222031;28;20064;-75
2022/09/22 04:26:32;;;;;;;1.50;0.88;;;;;;;6.20;100.00;102191.91;6221460;28;20054;-74
2022/09/22 04:29:34;;;;;;;2.10;1.33;;;;;;;6.23;100.00;102194.50;6221598;28;20056;-74
2022/09/22 04:32:35;;;;;;;1.92;1.10;;;;;;;6.27;100.00;102192.72;6221432;28;20054;-73
2022/09/22 04:35:38;;;;;;;1.42;1.02;;;;;;;6.26;100.00;102190.97;6242955;23;20532;-74
2022/09/22 04:38:39;;;;;;;3.33;1.38;;;;;;;6.21;100.00;102193.66;6221480;28;20057;-74
2022/09/22 04:41:40;;;;;;;4.47;1.23;;;;;;;6.22;100.00;102191.91;6225238;28;20418;-74
2022/09/22 04:44:42;;;;;;;1.83;1.20;;;;;;;6.25;100.00;102190.13;6225498;28;20054;-75
2022/09/22 04:47:45;;;;;;;1.92;0.88;;;;;;;6.23;100.00;102186.69;6226028;28;20200;-75
2022/09/22 04:50:47;;;;;;;1.27;0.90;;;;;;;6.19;100.00;102186.72;6225506;28;20049;-74
2022/09/22 04:53:49;;;;;;;1.95;0.90;;;;;;;6.16;100.00;102177.19;6225272;28;20421;-74
2022/09/22 04:56:50;;;;;;;1.35;0.98;;;;;;;6.14;100.00;102181.56;6225786;28;20050;-74
2022/09/22 04:59:52;;;;;;;1.90;1.30;;;;;;;6.10;100.00;102180.72;6225469;28;20058;-75
2022/09/22 05:02:54;;;;;;;1.30;0.82;;;;;;;6.08;100.00;102186.84;6225575;28;20136;-74
2022/09/22 05:05:56;;;;;;;2.92;1.40;;;;;;;6.09;100.00;102183.38;6225159;28;20493;-74
2022/09/22 05:08:58;;;;;;;3.47;1.63;;;;;;;6.04;100.00;102175.59;6225553;28;20053;-74
2022/09/22 05:12:00;;;;;;;3.03;1.58;;;;;;;6.02;100.00;102182.56;6224853;28;20050;-74
2022/09/22 05:15:01;;;;;;;1.58;1.25;;;;;;;5.98;100.00;102182.59;6225045;28;20046;-74
2022/09/22 05:18:02;;;;;;;2.63;1.30;;;;;;;5.97;100.00;102179.13;6225059;28;20517;-74
2022/09/22 05:21:06;;;;;;;2.58;1.17;;;;;;;5.99;100.00;102179.13;6225018;28;20053;-74
2022/09/22 05:24:07;;;;;;;4.82;1.20;;;;;;;5.95;100.00;102188.75;6224551;28;20061;-75
2022/09/22 05:27:08;;;;;;;5.50;1.45;;;;;;;5.96;100.00;102185.25;6225240;28;20537;-74
2022/09/22 05:30:10;;;;;;;1.27;1.02;;;;;;;5.98;100.00;102188.69;6224317;28;20068;-74
2022/09/22 05:33:12;;;;;;;6.20;1.25;;;;;;;6.02;100.00;102192.13;6225082;28;20124;-75
2022/09/22 05:36:15;;;;;;;8.32;1.77;;;;;;;6.04;100.00;102186.03;6224099;28;20050;-74
2022/09/22 05:39:16;;;;;;;3.33;1.88;;;;;;;6.06;100.00;102192.09;6225085;28;20065;-74
2022/09/22 05:42:17;;;;;;;5.57;1.60;;;;;;;6.08;100.00;102195.53;6224125;28;20421;-74
2022/09/22 05:45:20;;;;;;;6.10;1.40;;;;;;;6.08;100.00;102194.66;6224284;28;20057;-75
2022/09/22 05:48:21;;;;;;;3.88;1.48;;;;;;;6.07;100.00;102192.94;6224660;28;20140;-74
2022/09/22 05:51:24;;;;;;;7.75;1.45;;;;;;;6.12;100.00;102193.75;6223387;28;20049;-74
2022/09/22 05:54:25;;;;;;;3.45;1.30;;;;;;;6.18;100.00;102198.91;6224141;28;20057;-74
2022/09/22 05:57:27;;;;;;;3.92;1.35;;;;;;;6.21;100.00;102193.66;6224267;28;20061;-74
2022/09/22 06:00:29;;;;;;;3.25;1.15;;;;;;;6.23;100.00;102198.88;6224097;28;20049;-74
2022/09/22 06:03:30;;;;;;;2.47;1.42;;;;;;;6.25;100.00;102194.47;6224019;28;20042;-74
2022/09/22 06:06:33;;;;;;;4.25;1.55;;;;;;;6.29;100.00;102196.16;6223952;28;20061;-74
2022/09/22 06:09:34;;;;;;;2.08;1.40;;;;;;;6.35;100.00;102198.69;6224005;28;20049;-74
2022/09/22 06:12:35;;;;;;;3.70;1.40;;;;;;;6.40;100.00;102196.88;6223840;28;20053;-75
2022/09/22 06:15:38;;;;;;;3.35;1.75;;;;;;;6.47;100.00;102198.56;6223336;28;20049;-74
2022/09/22 06:18:39;;;;;;;2.78;1.48;;;;;;;6.49;100.00;102190.69;6223871;28;20423;-74
2022/09/22 06:21:42;;;;;;;8.27;1.60;;;;;;;6.54;100.00;102192.38;6223594;28;20049;-75
2022/09/22 06:24:44;;;;;;;6.10;2.15;;;;;;;6.59;100.00;102197.53;6223234;28;20429;-75
2022/09/22 06:27:45;;;;;;;2.80;1.63;;;;;;;6.65;100.00;102197.44;6223659;28;20045;-75
2022/09/22 06:30:48;;;;;;;3.45;2.00;;;;;;;6.70;100.00;102194.75;6223123;28;20046;-75
2022/09/22 06:33:49;;;;;;;3.45;1.73;;;;;;;6.77;100.00;102199.03;6223115;28;20053;-75
2022/09/22 06:36:55;;;;;;;1.60;1.10;;;;;;;6.82;100.00;102202.44;6223445;28;20054;-75
2022/09/22 06:39:56;;;;;;;3.78;1.65;;;;;;;6.90;100.00;102202.31;6223238;28;20050;-75
2022/09/22 06:42:58;;;;;;;8.43;1.52;;;;;;;6.99;100.00;102202.16;6223318;28;20057;-75
2022/09/22 06:46:01;;;;;;;1.60;1.25;;;;;;;7.07;100.00;102203.78;6222993;28;20057;-75
2022/09/22 06:49:02;;;;;;;1.48;0.98;;;;;;;7.16;100.00;102199.31;6223214;28;20057;-75
2022/09/22 06:52:09;;;;;;;1.42;1.15;;;;;;;7.24;100.00;102190.47;6222876;28;20046;-75
2022/09/22 06:55:11;;;;;;;5.28;1.48;;;;;;;7.36;100.00;102202.47;6222868;28;20046;-75
2022/09/22 06:58:14;;;;;;;4.15;1.58;;;;;;;7.46;100.00;102201.44;6222965;28;20560;-75
2022/09/22 07:01:16;;;;;;;2.10;1.30;;;;;;;7.55;100.00;102198.66;6222657;28;20054;-75
2022/09/22 07:04:18;;;;;;;2.47;1.27;;;;;;;7.64;100.00;102195.00;6221522;28;20046;-75
2022/09/22 07:07:21;;;;;;;5.60;2.03;;;;;;;7.70;100.00;102200.13;6222903;28;20164;-75
2022/09/22 07:10:22;;;;;;;2.60;1.65;;;;;;;7.78;100.00;102200.00;6222244;28;20064;-75
2022/09/22 07:13:24;;;;;;;4.25;1.42;;;;;;;7.86;100.00;102193.72;6222862;28;20057;-75
2022/09/22 07:16:26;;;;;;;3.00;1.55;;;;;;;7.96;100.00;102190.94;6222118;28;20057;-75
2022/09/22 07:19:27;;;;;;;5.55;1.80;;;;;;;7.99;100.00;102189.09;6222743;28;20054;-75
2022/09/22 07:22:30;;;;;;;2.80;1.77;;;;;;;8.06;100.00;102189.88;6222239;28;20046;-75
2022/09/22 07:25:34;;;;;;;2.53;1.30;;;;;;;8.12;100.00;102182.72;6222315;28;20050;-75
2022/09/22 07:28:36;;;;;;;4.90;1.55;;;;;;;8.24;100.00;102183.41;6222414;28;20437;-75
2022/09/22 07:31:38;;;;;;;3.97;1.80;;;;;;;8.31;100.00;102178.00;6222425;28;20050;-75
2022/09/22 07:34:39;;;;;;;5.25;2.00;;;;;;;8.42;100.00;102188.28;6221843;28;20049;-75
2022/09/22 07:37:41;;;;;;;1.80;1.30;;;;;;;8.49;100.00;102176.75;6222094;28;20046;-75
2022/09/22 07:40:51;;;;;;;1.42;1.30;;;;;;;8.53;100.00;102177.56;6222000;28;20049;-75
2022/09/22 07:43:55;;;;;;;3.03;1.67;;;;;;;8.56;100.00;102185.38;6221672;28;20535;-75
2022/09/22 07:46:57;;;;;;;5.85;1.60;;;;;;;8.61;100.00;102186.13;6222455;28;20050;-75
2022/09/22 07:49:58;;;;;;;1.13;1.02;;;;;;;8.70;100.00;102185.91;6221631;28;20057;-75
2022/09/22 07:53:02;;;;;;;2.08;1.20;;;;;;;8.77;100.00;102184.03;6222241;28;20045;-75
2022/09/22 07:56:06;;;;;;;2.05;1.15;;;;;;;8.82;100.00;102184.78;6221529;28;20136;-76
2022/09/22 07:59:09;;;;;;;1.65;1.10;;;;;;;8.89;100.00;102187.22;6222205;28;20509;-75
2022/09/22 08:02:11;;;;;;;4.05;1.23;;;;;;;8.98;100.00;102188.75;6221616;28;20042;-75
2022/09/22 08:05:14;;;;;;;1.10;0.98;;;;;;;9.03;100.00;102186.88;6221439;28;20390;-75
2022/09/22 08:08:16;;;;;;;3.65;1.35;;;;;;;9.15;100.00;102180.50;6213154;28;20046;-75
2022/09/22 08:11:20;;;;;;;1.27;0.98;;;;;;;9.23;100.00;102186.44;6219517;28;20049;-75
2022/09/22 08:14:22;;;;;;;3.78;2.20;;;;;;;9.32;100.00;102186.19;6222120;28;20056;-77
2022/09/22 08:17:23;;;;;;;4.43;1.67;;;;;;;9.40;100.00;102188.59;6226702;28;20064;-75
2022/09/22 08:20:27;;;;;;;6.78;1.65;;;;;;;9.47;100.00;102182.31;6224477;28;20077;-74
2022/09/22 08:23:30;;;;;;;2.45;1.23;;;;;;;9.59;100.00;102191.66;6224015;28;20046;-75
2022/09/22 08:26:32;;;;;;;2.80;1.88;;;;;;;9.66;100.00;102188.81;6225660;28;20076;-75
2022/09/22 08:29:34;;;;;;;2.33;1.20;;;;;;;9.80;100.00;102184.94;6225121;28;20053;-75
2022/09/22 08:32:35;;;;;;;3.35;1.10;;;;;;;9.93;100.00;102188.97;6224563;28;20387;-76
2022/09/22 08:35:37;;;;;;;1.38;1.08;;;;;;;10.08;100.00;102193.81;6224626;28;20072;-75
2022/09/22 08:38:40;;;;;;;2.22;1.60;;;;;;;10.15;100.00;102189.25;6226394;28;20052;-76
2022/09/22 08:41:54;;;;;;;2.22;1.10;;;;;;;10.23;100.00;102184.63;6225418;28;20149;-75
2022/09/22 08:45:00;;;;;;;2.53;1.02;;;;;;;10.37;100.00;102177.25;6225836;28;20093;-75
2022/09/22 08:51:54;;;;;;;6.38;0.82;;;;;;;10.51;100.00;102183.84;6223492;28;20430;-75
2022/09/22 08:54:59;;;;;;;1.50;0.90;;;;;;;10.60;100.00;102184.44;6221943;28;20060;-76
2022/09/22 08:58:07;;;;;;;8.77;3.85;;;;;;;10.72;100.00;102177.06;6225811;28;20398;-75
2022/09/22 09:01:36;;;;;;;3.58;1.50;;;;;;;10.85;100.00;102186.28;6225518;28;20504;-75
2022/09/22 09:05:17;;;;;;;5.20;1.10;;;;;;;10.94;100.00;102183.38;6224714;28;20596;-75
2022/09/22 09:08:37;;;;;;;6.00;1.63;;;;;;;11.06;100.00;102177.72;6204641;28;20061;-75
2022/09/22 09:11:52;;;;;;;1.45;0.75;;;;;;;11.13;100.00;102187.16;6225004;28;20042;-75
2022/09/22 09:15:14;;;;;;;2.00;0.80;;;;;;;11.21;100.00;102183.41;6224768;28;20053;-76
2022/09/22 09:18:21;;;;;;;0.88;0.60;;;;;;;11.30;100.00;102183.94;6225467;28;20054;-75
2022/09/22 09:21:24;;;;;;;1.65;0.63;;;;;;;11.43;100.00;102182.63;6224523;28;20143;-75
2022/09/22 09:24:31;;;;;;;0.98;0.57;;;;;;;11.52;100.00;102180.59;6224836;28;20060;-76
2022/09/22 09:27:39;;;;;;;0.85;0.70;;;;;;;11.56;100.00;102180.44;6223933;28;20497;-75
2022/09/22 09:30:44;;;;;;;2.40;0.73;;;;;;;11.62;100.00;102177.59;6224752;28;20603;-75
2022/09/22 09:33:57;;;;;;;1.42;0.77;;;;;;;11.71;100.00;102179.03;6224180;28;20045;-75
2022/09/22 09:37:07;;;;;;;0.40;0.40;;;;;;;11.79;99.13;102176.16;6225132;28;20054;-75
2022/09/22 09:40:14;;;;;;;2.78;0.63;;;;;;;11.92;97.53;102169.56;6224336;28;20049;-75
2022/09/22 09:43:19;;;;;;;2.38;0.60;;;;;;;11.93;97.13;102166.84;6224704;28;20057;-76
2022/09/22 09:46:33;;;;;;;1.25;0.50;;;;;;;12.04;97.14;102163.00;6224533;28;20057;-76
2022/09/22 09:49:34;;;;;;;6.57;0.85;;;;;;;12.11;95.39;102160.06;6224714;28;20072;-76
2022/09/22 09:52:37;;;;;;;6.07;2.40;;;;;;;12.19;93.34;102157.16;6224202;28;20042;-75
2022/09/22 09:55:39;;;;;;;3.58;2.15;;;;;;;12.30;93.11;102156.72;6224051;28;20057;-75
2022/09/22 10:02:15;;;;;;;1.27;0.68;;;;;;;12.44;89.93;102154.41;6223942;28;20050;-75
2022/09/22 10:05:25;;;;;;;0.65;0.57;;;;;;;12.59;85.35;102143.31;6223599;28;20394;-75
2022/09/22 10:08:33;;;;;;;0.80;0.50;;;;;;;12.79;84.99;102144.28;6224296;28;20054;-76
2022/09/22 10:11:34;;;;;;;1.92;0.90;;;;;;;12.86;81.93;102141.34;6222894;28;20501;-76
2022/09/22 10:14:36;;;;;;;2.67;0.45;;;;;;;13.04;79.94;102142.38;6223190;28;20050;-76
2022/09/22 10:17:41;;;;;;;1.05;0.30;;;;;;;13.07;81.39;102139.59;6223497;28;20642;-75
2022/09/22 10:20:42;;;;;;;2.22;0.57;;;;;;;13.10;83.91;102134.19;6222898;28;20045;-76
2022/09/22 10:23:45;;;;;;;0.50;0.40;;;;;;;13.12;84.98;102128.84;6223129;28;20145;-75
2022/09/22 10:26:54;;;;;;;4.13;1.58;;;;;;;13.24;78.71;102131.00;6223810;28;20058;-75
2022/09/22 10:30:22;;;;;;;1.23;0.52;;;;;;;13.34;79.40;102123.53;6223177;28;20056;-76
2022/09/22 10:33:24;;;;;;;3.78;0.47;;;;;;;13.40;79.12;102121.50;6223446;28;20054;-75
2022/09/22 10:36:27;;;;;;;4.07;0.57;;;;;;;13.45;78.79;102114.25;6222949;28;20506;-74
2022/09/22 10:39:39;;;;;;;3.28;0.63;;;;;;;13.68;75.24;102110.59;6223809;28;20053;-74
2022/09/22 10:42:42;;;;;;;2.17;0.70;;;;;;;13.81;76.24;102112.69;6223780;28;20053;-75
2022/09/22 10:45:56;;;;;;;3.80;0.40;;;;;;;13.95;80.04;102108.50;6223368;28;20072;-74
2022/09/22 10:49:06;;;;;;;0.90;0.65;;;;;;;14.09;80.81;102114.94;6223924;28;20054;-74
2022/09/22 10:52:17;;;;;;;2.80;0.93;;;;;;;14.16;76.08;102111.06;6222956;28;20057;-75
2022/09/22 10:55:28;;;;;;;1.27;0.50;;;;;;;14.13;73.79;102105.94;6223077;28;20054;-75
2022/09/22 10:58:45;;;;;;;4.03;0.93;;;;;;;14.11;75.57;102102.50;6223357;28;20068;-75
2022/09/22 11:02:02;;;;;;;3.38;0.70;;;;;;;14.08;76.00;102095.56;6223101;28;20128;-75
2022/09/22 11:12:15;;;;;;;1.63;0.55;;;;;;;14.23;74.65;102091.34;6222634;28;20058;-75
2022/09/22 11:12:25;;;;;;;1.10;0.77;;;;;;;14.83;73.54;102091.97;6218901;28;20611;-75
2022/09/22 11:15:44;;;;;;;1.33;0.40;;;;;;;15.06;70.66;102092.63;6222261;28;20053;-75
2022/09/22 11:19:04;;;;;;;0.88;0.60;;;;;;;15.15;71.52;102078.91;6216164;28;20068;-75
2022/09/22 11:22:28;;;;;;;1.55;0.40;;;;;;;15.44;69.55;102086.22;6204968;28;20042;-75
2022/09/22 11:25:46;;;;;;;4.15;0.50;;;;;;;15.63;68.44;102078.16;6222197;28;20053;-75
2022/09/22 11:28:59;;;;;;;2.97;0.30;;;;;;;15.83;67.59;102077.09;6222554;28;20054;-74
2022/09/22 11:32:10;;;;;;;0.70;0.32;;;;;;;16.03;63.80;102075.16;6221920;28;20405;-75
2022/09/22 11:35:27;;;;;;;1.17;0.50;;;;;;;16.30;65.51;102070.97;6221813;28;20057;-75
2022/09/22 11:38:46;;;;;;;1.42;0.43;;;;;;;16.54;63.86;102066.09;6222389;28;20489;-75
2022/09/22 11:42:00;;;;;;;0.55;0.30;;;;;;;16.84;61.29;102065.28;6222242;28;20049;-74
2022/09/22 11:45:17;;;;;;;1.67;0.30;;;;;;;16.98;54.10;102060.00;6221830;28;20516;-74
2022/09/22 11:48:34;;;;;;;0.93;0.35;;;;;;;17.10;57.14;102066.41;6222566;28;20053;-75
2022/09/22 11:51:55;;;;;;;1.00;0.35;;;;;;;17.14;60.32;102063.47;6221349;28;20425;-75
2022/09/22 11:55:15;;;;;;;3.60;0.30;;;;;;;17.07;59.40;102058.59;6221969;28;20060;-75
2022/09/22 11:58:21;;;;;;;0.85;0.30;;;;;;;16.66;59.30;102053.91;6222390;28;20054;-75
2022/09/22 12:01:29;;;;;;;1.27;0.30;;;;;;;16.32;60.43;102047.03;6221845;28;20402;-76
2022/09/22 12:04:36;;;;;;;3.10;0.47;;;;;;;16.04;63.33;102053.03;6221973;28;20050;-75
2022/09/22 12:07:45;;;;;;;0.35;0.35;;;;;;;15.80;57.76;102041.94;6222089;28;20050;-74
2022/09/22 12:10:49;;;;;;;1.90;0.52;;;;;;;15.64;60.93;102041.94;6222826;28;20050;-74
2022/09/22 12:13:52;;;;;;;1.80;0.40;;;;;;;15.69;62.61;102039.91;6221444;28;20054;-74
2022/09/22 12:17:00;;;;;;;0.80;0.65;;;;;;;16.34;62.04;102040.69;6221851;28;20176;-75
2022/09/22 12:20:13;;;;;;;1.13;0.30;;;;;;;17.02;59.54;102034.13;6221591;28;20490;-75
2022/09/22 12:23:37;;;;;;;4.15;0.52;;;;;;;17.45;54.24;102019.94;6221845;28;20056;-76
2022/09/22 12:26:40;;;;;;;0.40;0.38;;;;;;;17.93;57.14;102023.13;6221487;28;20061;-74
2022/09/22 12:29:43;;;;;;;0.70;0.40;;;;;;;18.16;56.89;102012.81;6221636;28;20064;-75
2022/09/22 12:32:44;;;;;;;0.57;0.30;;;;;;;18.43;57.89;102016.34;6221651;28;20494;-75
2022/09/22 12:35:53;;;;;;;1.15;0.40;;;;;;;18.72;56.54;102016.25;6221083;28;20046;-75
2022/09/22 12:39:06;;;;;;;0.85;0.38;;;;;;;18.94;55.29;102013.84;6222035;28;20065;-75
2022/09/22 12:42:19;;;;;;;1.98;0.40;;;;;;;18.86;53.86;102004.66;6221186;28;20050;-75
2022/09/22 12:45:31;;;;;;;0.45;0.30;;;;;;;18.93;54.85;101998.78;6221186;28;20144;-75
2022/09/22 12:48:36;;;;;;;3.97;0.65;;;;;;;19.10;56.94;101997.63;6221778;28;20061;-76
2022/09/22 12:51:38;;;;;;;0.77;0.50;;;;;;;19.26;55.45;101995.63;6221220;28;20053;-74
2022/09/22 12:54:40;;;;;;;1.42;0.57;;;;;;;19.38;54.65;102006.38;6221099;28;20053;-75
2022/09/22 12:57:46;;;;;;;3.13;0.47;;;;;;;19.27;52.04;101996.47;6221551;28;20050;-75
2022/09/22 13:00:49;;;;;;;1.65;0.50;;;;;;;19.07;52.57;101989.84;6221216;28;20053;-75
2022/09/22 13:03:51;;;;;;;0.88;0.50;;;;;;;18.61;51.89;102000.94;6225266;28;20453;-75
2022/09/22 13:06:58;;;;;;;2.42;0.73;;;;;;;18.24;54.30;102002.53;6225536;28;20079;-75
2022/09/22 13:10:37;;;;;;;1.20;0.38;;;;;;;18.49;53.58;101994.66;6225449;28;20053;-75
2022/09/22 13:13:42;;;;;;;2.92;0.50;;;;;;;18.98;56.27;101991.31;6224753;28;20132;-75
2022/09/22 13:16:43;;;;;;;1.00;0.40;;;;;;;19.37;55.60;101980.69;6217824;28;20077;-75
2022/09/22 13:19:55;;;;;;;1.42;0.40;;;;;;;19.53;53.24;101975.97;6225200;28;20561;-75
2022/09/22 13:23:04;;;;;;;1.70;0.55;;;;;;;19.62;52.04;101980.69;6224613;28;20060;-76
2022/09/22 13:26:06;;;;;;;;;;;;;;;19.82;51.40;101978.38;6223512;28;20056;-75
2022/09/22 13:29:13;;;;;;;2.30;0.75;;;;;;;19.89;51.76;101972.47;6223437;28;19925;-76
2022/09/22 13:32:25;;;;;;;1.50;0.30;;;;;;;19.91;51.93;101975.03;6223135;28;20053;-76
2022/09/22 13:35:28;;;;;;;0.82;0.50;;;;;;;20.08;52.39;101971.13;6220990;28;20050;-75
2022/09/22 13:38:32;;;;;;;1.35;0.45;;;;;;;20.05;48.96;101968.69;6224840;28;20045;-76
2022/09/22 13:41:42;;;;;;;2.40;0.40;;;;;;;20.06;51.25;101968.56;6224508;28;20053;-74
2022/09/22 13:44:48;;;;;;;0.55;0.35;;;;;;;20.22;50.93;101960.28;6224102;28;20053;-75
2022/09/22 13:47:51;;;;;;;0.93;0.30;;;;;;;20.25;51.58;101949.34;6223028;28;20053;-75
2022/09/22 13:50:55;;;;;;;1.58;0.40;;;;;;;20.35;51.04;101953.06;6222824;28;20496;-76
2022/09/22 13:53:57;;;;;;;0.32;0.32;;;;;;;20.29;51.13;101945.50;6222856;28;20042;-76
2022/09/22 13:56:59;;;;;;;0.50;0.40;;;;;;;20.31;51.84;101938.22;6224631;28;20453;-76
2022/09/22 14:00:04;;;;;;;0.40;0.40;;;;;;;20.36;51.68;101940.56;6224222;28;20072;-76
2022/09/22 14:03:05;;;;;;;0.30;0.20;;;;;;;20.43;50.80;101933.75;6224250;28;20056;-76
2022/09/22 14:06:11;;;;;;;3.10;0.52;;;;;;;20.54;50.31;101941.00;6223771;28;20421;-76
2022/09/22 14:09:13;;;;;;;0.45;0.40;;;;;;;20.55;49.04;101942.72;6224174;28;20046;-76
2022/09/22 14:12:15;;;;;;;1.60;0.50;;;;;;;20.60;47.50;101935.19;6223316;28;20054;-74
2022/09/22 14:15:42;;;;;;;2.50;0.52;;;;;;;20.28;49.05;101936.63;6223883;28;20057;-76
2022/09/22 14:18:47;;;;;;;7.93;0.57;;;;;;;19.61;48.34;101930.09;6224068;28;20085;-76
2022/09/22 14:21:52;;;;;;;0.95;0.50;;;;;;;19.07;52.31;101925.91;6223727;28;20053;-75
2022/09/22 14:24:56;;;;;;;0.30;0.30;;;;;;;18.76;51.72;101921.88;6223317;28;20050;-76
2022/09/22 14:27:59;;;;;;;0.70;0.65;;;;;;;18.71;51.29;101923.97;6223727;28;20053;-76
2022/09/22 14:31:02;;;;;;;1.02;0.50;;;;;;;18.59;50.56;101924.81;6223416;28;20069;-75
2022/09/22 14:34:09;;;;;;;1.05;0.35;;;;;;;18.73;51.83;101922.09;6222825;28;20053;-76